createdAt,value
2023-02-24T00:02:04.896Z,3.40
2023-02-24T00:04:38.442Z,3.30
2023-02-24T00:07:05.807Z,3.30
2023-02-24T00:09:33.195Z,3.20
2023-02-24T00:12:02.890Z,3.10
2023-02-24T00:14:32.093Z,3.10
2023-02-24T00:16:59.012Z,3.10
2023-02-24T00:19:29.458Z,3.10
2023-02-24T00:21:56.101Z,3.10
2023-02-24T00:24:23.048Z,3.20
2023-02-24T00:26:59.346Z,3.20
2023-02-24T00:29:26.554Z,3.20
2023-02-24T00:32:00.996Z,3.20
2023-02-24T00:34:30.773Z,3.20
2023-02-24T00:36:58.318Z,3.20
2023-02-24T00:39:33.272Z,3.10
2023-02-24T00:42:04.780Z,3.20
2023-02-24T00:44:45.646Z,3.20
2023-02-24T00:47:16.399Z,3.20
2023-02-24T00:49:43.554Z,3.20
2023-02-24T00:52:16.890Z,3.30
2023-02-24T00:54:44.892Z,3.30
2023-02-24T00:57:12.123Z,3.30
2023-02-24T00:59:39.458Z,3.30
2023-02-24T01:02:07.218Z,3.30
2023-02-24T01:04:34.337Z,3.40
2023-02-24T01:07:01.583Z,3.40
2023-02-24T01:09:31.416Z,3.40
2023-02-24T01:12:17.558Z,3.50
2023-02-24T01:14:47.597Z,3.50
2023-02-24T01:17:14.671Z,3.50
2023-02-24T01:19:44.657Z,3.40
2023-02-24T01:22:14.900Z,3.50
2023-02-24T01:24:43.566Z,3.50
2023-02-24T01:27:13.083Z,3.50
2023-02-24T01:29:39.902Z,3.50
2023-02-24T01:32:13.567Z,3.50
2023-02-24T01:34:42.392Z,3.50
2023-02-24T01:37:10.090Z,3.40
2023-02-24T01:39:37.122Z,3.40
2023-02-24T01:42:06.673Z,3.50
2023-02-24T01:44:33.269Z,3.50
2023-02-24T01:47:01.329Z,3.50
2023-02-24T01:49:40.998Z,3.50
2023-02-24T01:52:15.110Z,3.50
2023-02-24T01:54:49.575Z,3.50
2023-02-24T01:57:20.906Z,3.40
2023-02-24T01:59:49.639Z,3.40
2023-02-24T02:02:17.075Z,3.40
2023-02-24T02:04:51.926Z,3.40
2023-02-24T02:07:21.928Z,3.50
2023-02-24T02:09:50.266Z,3.50
2023-02-24T02:12:17.439Z,3.40
2023-02-24T02:14:54.512Z,3.40
2023-02-24T02:17:54.994Z,3.40
2023-02-24T02:20:47.837Z,3.40
2023-02-24T02:23:27.590Z,3.40
2023-02-24T02:26:18.775Z,3.40
2023-02-24T02:29:07.257Z,3.40
2023-02-24T02:31:50.720Z,3.40
2023-02-24T02:34:25.343Z,3.30
2023-02-24T02:37:05.839Z,3.40
2023-02-24T02:39:58.793Z,3.30
2023-02-24T02:42:33.032Z,3.40
2023-02-24T02:45:05.209Z,3.40
2023-02-24T02:47:38.291Z,3.30
2023-02-24T02:50:19.681Z,3.30
2023-02-24T02:52:57.831Z,3.30
2023-02-24T02:56:05.310Z,3.30
2023-02-24T02:58:36.198Z,3.20
2023-02-24T03:01:07.059Z,3.20
2023-02-24T03:03:38.447Z,3.10
2023-02-24T03:06:13.720Z,3.10
2023-02-24T03:08:52.365Z,3.10
2023-02-24T03:11:21.080Z,3.00
2023-02-24T03:13:51.166Z,2.90
2023-02-24T03:16:19.013Z,2.90
2023-02-24T03:18:50.893Z,2.80
2023-02-24T03:21:32.827Z,2.80
2023-02-24T03:24:02.302Z,2.80
2023-02-24T03:26:46.771Z,2.80
2023-02-24T03:29:30.462Z,2.70
2023-02-24T03:32:04.689Z,2.70
2023-02-24T03:34:51.177Z,2.50
2023-02-24T03:37:25.561Z,2.50
2023-02-24T03:39:54.970Z,2.50
2023-02-24T03:42:28.978Z,2.50
2023-02-24T03:44:58.154Z,2.40
2023-02-24T03:47:26.471Z,2.50
2023-02-24T03:49:53.742Z,2.30
2023-02-24T03:52:41.314Z,2.20
2023-02-24T03:55:33.128Z,2.20
2023-02-24T03:58:22.235Z,2.20
2023-02-24T04:01:05.640Z,2.10
2023-02-24T04:03:40.677Z,2.10
2023-02-24T04:06:51.280Z,2.10
2023-02-24T04:09:40.411Z,2.00
2023-02-24T04:12:30.472Z,1.90
2023-02-24T04:15:10.346Z,1.80
2023-02-24T04:17:54.765Z,1.80
2023-02-24T04:20:29.296Z,1.90
2023-02-24T04:23:13.067Z,1.90
2023-02-24T04:25:45.030Z,1.90
2023-02-24T04:28:13.349Z,1.90
2023-02-24T04:30:48.346Z,1.80
2023-02-24T04:33:15.461Z,1.80
2023-02-24T04:35:45.349Z,1.80
2023-02-24T04:38:12.444Z,1.80
2023-02-24T04:40:40.781Z,1.80
2023-02-24T04:43:07.804Z,1.70
2023-02-24T04:45:34.480Z,1.70
2023-02-24T04:48:02.793Z,1.70
2023-02-24T04:50:35.555Z,1.70
2023-02-24T04:53:07.191Z,1.80
2023-02-24T04:55:39.925Z,1.80
2023-02-24T04:58:11.550Z,1.90
2023-02-24T05:00:41.356Z,2.00
2023-02-24T05:03:12.650Z,2.00
2023-02-24T05:05:39.519Z,2.10
2023-02-24T05:08:08.307Z,2.10
2023-02-24T05:10:41.027Z,2.20
2023-02-24T05:13:09.139Z,2.20
2023-02-24T05:15:41.030Z,2.20
2023-02-24T05:18:09.349Z,2.30
2023-02-24T05:20:55.799Z,2.30
2023-02-24T05:23:34.149Z,2.40
2023-02-24T05:26:02.896Z,2.40
2023-02-24T05:28:31.642Z,2.50
2023-02-24T05:31:08.200Z,2.50
2023-02-24T05:33:38.783Z,2.50
2023-02-24T05:36:08.728Z,2.50
2023-02-24T05:38:37.975Z,2.50
2023-02-24T05:41:14.939Z,2.50
2023-02-24T05:43:41.572Z,2.50
2023-02-24T05:46:08.196Z,2.60
2023-02-24T05:48:37.578Z,2.60
2023-02-24T05:51:07.885Z,2.60
2023-02-24T05:53:35.284Z,2.60
2023-02-24T05:56:02.370Z,2.60
2023-02-24T05:58:32.310Z,2.60
2023-02-24T06:01:05.827Z,2.60
2023-02-24T06:03:35.484Z,2.60
2023-02-24T06:06:08.840Z,2.70
2023-02-24T06:08:42.029Z,2.70
2023-02-24T06:11:10.911Z,2.60
2023-02-24T06:13:38.682Z,2.60
2023-02-24T06:16:06.836Z,2.60
2023-02-24T06:18:33.851Z,2.60
2023-02-24T06:21:03.694Z,2.60
2023-02-24T06:23:30.312Z,2.60
2023-02-24T06:26:01.995Z,2.60
2023-02-24T06:28:28.586Z,2.50
2023-02-24T06:30:56.174Z,2.50
2023-02-24T06:33:26.232Z,2.50
2023-02-24T06:35:53.315Z,2.50
2023-02-24T06:38:19.958Z,2.60
2023-02-24T06:40:47.429Z,2.60
2023-02-24T06:43:14.026Z,2.60
2023-02-24T06:45:40.778Z,2.60
2023-02-24T06:48:08.983Z,2.60
2023-02-24T06:50:35.557Z,2.60
2023-02-24T06:53:02.654Z,2.60
2023-02-24T06:55:29.386Z,2.60
2023-02-24T06:58:04.116Z,2.60
2023-02-24T07:00:39.469Z,2.60
2023-02-24T07:03:14.802Z,2.60
2023-02-24T07:05:50.195Z,2.60
2023-02-24T07:08:18.744Z,2.60
2023-02-24T07:10:45.836Z,2.70
2023-02-24T07:13:13.452Z,2.70
2023-02-24T07:15:40.126Z,2.70
2023-02-24T07:18:14.642Z,2.70
2023-02-24T07:20:45.647Z,2.70
2023-02-24T07:23:14.990Z,2.70
2023-02-24T07:25:43.281Z,2.70
2023-02-24T07:28:10.973Z,2.70
2023-02-24T07:30:40.088Z,2.80
2023-02-24T07:33:08.340Z,2.70
2023-02-24T07:35:41.476Z,2.80
2023-02-24T07:38:08.410Z,2.80
2023-02-24T07:40:36.239Z,2.80
2023-02-24T07:43:06.009Z,2.80
2023-02-24T07:45:32.716Z,2.80
2023-02-24T07:48:01.532Z,2.80
2023-02-24T07:50:32.532Z,2.80
2023-02-24T07:52:59.609Z,2.80
2023-02-24T07:55:31.077Z,2.80
2023-02-24T07:57:57.683Z,2.90
2023-02-24T08:00:28.096Z,2.90
2023-02-24T08:02:56.612Z,2.90
2023-02-24T08:05:24.470Z,2.90
2023-02-24T08:07:51.972Z,2.90
2023-02-24T08:10:25.611Z,2.90
2023-02-24T08:12:54.445Z,3.00
2023-02-24T08:15:24.557Z,3.00
2023-02-24T08:17:53.693Z,3.00
2023-02-24T08:20:21.981Z,3.00
2023-02-24T08:22:53.449Z,3.00
2023-02-24T08:25:23.109Z,3.00
2023-02-24T08:28:06.694Z,3.00
2023-02-24T08:30:39.220Z,3.00
2023-02-24T08:33:09.023Z,3.00
2023-02-24T08:35:38.113Z,3.00
2023-02-24T08:38:08.554Z,3.00
2023-02-24T08:40:39.618Z,3.00
2023-02-24T08:43:19.524Z,3.00
2023-02-24T08:46:05.876Z,3.00
2023-02-24T08:48:38.470Z,2.90
2023-02-24T08:51:22.768Z,2.90
2023-02-24T08:53:53.139Z,2.90
2023-02-24T08:56:25.658Z,2.90
2023-02-24T08:58:57.950Z,2.90
2023-02-24T09:01:27.878Z,2.90
2023-02-24T09:03:59.127Z,3.00
2023-02-24T09:06:34.277Z,3.00
2023-02-24T09:09:21.211Z,3.00
2023-02-24T09:11:57.335Z,2.90
2023-02-24T09:14:29.618Z,2.80
2023-02-24T09:17:11.357Z,2.80
2023-02-24T09:19:48.012Z,2.70
2023-02-24T09:22:31.199Z,2.70
2023-02-24T09:25:18.870Z,2.70
2023-02-24T09:27:52.055Z,2.60
2023-02-24T09:30:38.855Z,2.60
2023-02-24T09:33:17.971Z,2.50
2023-02-24T09:35:47.089Z,2.50
2023-02-24T09:38:16.616Z,2.50
2023-02-24T09:40:49.002Z,2.50
2023-02-24T09:43:24.203Z,2.40
2023-02-24T09:45:53.477Z,2.40
2023-02-24T09:48:51.451Z,2.50
2023-02-24T09:51:28.720Z,2.40
2023-02-24T09:53:56.922Z,2.40
2023-02-24T09:56:28.204Z,2.40
2023-02-24T09:59:25.936Z,2.40
2023-02-24T10:02:18.601Z,2.30
2023-02-24T10:04:53.815Z,2.30
2023-02-24T10:07:38.299Z,2.30
2023-02-24T10:10:27.903Z,2.30
2023-02-24T10:13:13.879Z,2.30
2023-02-24T10:15:56.942Z,2.40
2023-02-24T10:18:31.493Z,2.50
2023-02-24T10:21:03.410Z,2.40
2023-02-24T10:23:36.050Z,2.40
2023-02-24T10:26:07.552Z,2.30
2023-02-24T10:28:51.759Z,2.20
2023-02-24T10:31:42.785Z,2.20
2023-02-24T10:34:26.208Z,2.30
2023-02-24T10:37:00.864Z,2.30
2023-02-24T10:39:30.102Z,2.30
2023-02-24T10:42:19.564Z,2.40
2023-02-24T10:45:02.346Z,2.40
2023-02-24T10:47:31.099Z,2.50
2023-02-24T10:50:03.387Z,2.50
2023-02-24T10:53:06.657Z,2.60
2023-02-24T10:55:39.254Z,2.70
2023-02-24T10:58:07.184Z,2.60
2023-02-24T11:00:56.187Z,2.60
2023-02-24T11:03:35.931Z,2.60
2023-02-24T11:06:03.325Z,2.60
2023-02-24T11:08:54.481Z,2.60
2023-02-24T11:11:30.541Z,2.50
2023-02-24T11:14:18.409Z,2.60
2023-02-24T11:17:13.143Z,2.50
2023-02-24T11:20:12.620Z,2.60
2023-02-24T11:22:41.898Z,2.60
2023-02-24T11:25:39.540Z,2.50
2023-02-24T11:28:20.338Z,2.40
2023-02-24T11:31:12.977Z,2.40
2023-02-24T11:34:29.793Z,2.40
2023-02-24T11:37:22.631Z,2.40
2023-02-24T11:39:58.628Z,2.30
2023-02-24T11:42:37.856Z,2.30
2023-02-24T11:45:24.715Z,2.30
2023-02-24T11:48:14.945Z,2.30
2023-02-24T11:50:54.875Z,2.20
2023-02-24T11:53:46.185Z,2.20
2023-02-24T11:56:22.642Z,2.30
2023-02-24T11:59:01.271Z,2.30
2023-02-24T12:01:59.962Z,2.30
2023-02-24T12:04:34.354Z,2.30
2023-02-24T12:07:10.409Z,2.30
2023-02-24T12:10:00.314Z,2.40
2023-02-24T12:12:42.491Z,2.40
2023-02-24T12:15:23.005Z,2.40
2023-02-24T12:18:13.660Z,2.40
2023-02-24T12:20:47.570Z,2.40
2023-02-24T12:23:37.411Z,2.40
2023-02-24T12:26:25.381Z,2.40
2023-02-24T12:29:16.712Z,2.30
2023-02-24T12:32:11.105Z,2.30
2023-02-24T12:34:53.488Z,2.30
2023-02-24T12:37:30.621Z,2.30
2023-02-24T12:40:14.492Z,2.30
2023-02-24T12:43:02.070Z,2.30
2023-02-24T12:46:25.463Z,2.40
2023-02-24T12:49:20.946Z,2.30
2023-02-24T12:51:55.384Z,2.40
2023-02-24T12:54:29.293Z,2.40
2023-02-24T12:57:22.172Z,2.40
2023-02-24T12:59:49.557Z,2.40
2023-02-24T13:02:39.436Z,2.30
2023-02-24T13:05:16.755Z,2.30
2023-02-24T13:08:05.301Z,2.30
2023-02-24T13:11:03.261Z,2.30
2023-02-24T13:13:46.354Z,2.40
2023-02-24T13:16:13.181Z,2.40
2023-02-24T13:18:39.854Z,2.40
2023-02-24T13:21:22.418Z,2.40
2023-02-24T13:24:01.035Z,2.50
2023-02-24T13:26:30.749Z,2.50
2023-02-24T13:29:03.469Z,2.50
2023-02-24T13:31:46.667Z,2.60
2023-02-24T13:34:31.508Z,2.60
2023-02-24T13:36:58.558Z,2.60
2023-02-24T13:39:37.066Z,2.70
2023-02-24T13:42:06.814Z,2.60
2023-02-24T13:44:34.101Z,2.70
2023-02-24T13:47:16.604Z,2.70
2023-02-24T13:49:52.303Z,2.70
2023-02-24T13:52:34.420Z,2.80
2023-02-24T13:55:45.182Z,2.90
2023-02-24T13:58:53.700Z,2.90
2023-02-24T14:01:22.381Z,2.90
2023-02-24T14:04:28.349Z,2.90
2023-02-24T14:07:00.264Z,2.80
2023-02-24T14:09:32.061Z,2.80
2023-02-24T14:12:01.424Z,2.90
2023-02-24T14:14:29.883Z,2.90
2023-02-24T14:16:56.666Z,3.00
2023-02-24T14:19:25.353Z,3.00
2023-02-24T14:21:55.110Z,3.00
2023-02-24T14:24:22.298Z,3.10
2023-02-24T14:26:52.441Z,3.10
2023-02-24T14:29:26.147Z,3.10
2023-02-24T14:31:56.651Z,3.10
2023-02-24T14:34:26.721Z,3.10
2023-02-24T14:36:57.064Z,3.20
2023-02-24T14:39:26.467Z,3.10
2023-02-24T14:42:08.529Z,3.10
2023-02-24T14:44:44.906Z,3.20
2023-02-24T14:47:16.173Z,3.20
2023-02-24T14:49:52.662Z,3.30
2023-02-24T14:52:28.859Z,3.30
2023-02-24T14:55:05.979Z,3.40
2023-02-24T14:57:40.521Z,3.40
2023-02-24T15:00:29.663Z,3.40
2023-02-24T15:03:20.970Z,3.30
2023-02-24T15:05:52.113Z,3.30
2023-02-24T15:08:30.860Z,3.40
2023-02-24T15:10:58.286Z,3.40
2023-02-24T15:13:37.186Z,3.40
2023-02-24T15:16:17.838Z,3.50
2023-02-24T15:18:49.421Z,3.60
2023-02-24T15:21:23.026Z,3.60
2023-02-24T15:23:57.631Z,3.60
2023-02-24T15:26:30.694Z,3.60
2023-02-24T15:28:59.984Z,3.60
2023-02-24T15:31:28.197Z,3.60
2023-02-24T15:34:00.526Z,3.60
2023-02-24T15:36:32.098Z,3.70
2023-02-24T15:39:06.594Z,3.70
2023-02-24T15:41:41.590Z,3.70
2023-02-24T15:44:30.605Z,3.70
2023-02-24T15:46:59.535Z,3.80
2023-02-24T15:49:26.521Z,3.80
2023-02-24T15:51:55.156Z,3.80
2023-02-24T15:54:35.834Z,3.80
2023-02-24T15:57:03.398Z,3.90
2023-02-24T15:59:30.022Z,3.80
2023-02-24T16:01:57.401Z,3.80
2023-02-24T16:04:24.459Z,3.90
2023-02-24T16:06:54.551Z,3.80
2023-02-24T16:09:36.535Z,3.80
2023-02-24T16:12:14.647Z,3.80
2023-02-24T16:14:42.494Z,3.80
2023-02-24T16:17:25.538Z,3.90
2023-02-24T16:19:52.186Z,3.90
2023-02-24T16:22:19.006Z,3.90
2023-02-24T16:24:45.586Z,3.90
2023-02-24T16:27:18.230Z,3.90
2023-02-24T16:29:45.055Z,3.90
2023-02-24T16:32:13.305Z,3.90
2023-02-24T16:34:40.115Z,3.90
2023-02-24T16:37:22.501Z,4.00
2023-02-24T16:39:49.409Z,4.00
2023-02-24T16:42:17.431Z,4.10
2023-02-24T16:44:44.958Z,4.10
2023-02-24T16:47:20.369Z,4.10
2023-02-24T16:49:47.105Z,4.20
2023-02-24T16:52:14.590Z,4.20
2023-02-24T16:54:41.231Z,4.20
2023-02-24T16:57:07.889Z,4.10
2023-02-24T16:59:35.571Z,4.20
2023-02-24T17:02:02.834Z,4.20
2023-02-24T17:04:29.743Z,4.20
2023-02-24T17:06:56.388Z,4.20
2023-02-24T17:09:23.055Z,4.20
2023-02-24T17:11:49.626Z,4.30
2023-02-24T17:14:18.339Z,4.20
2023-02-24T17:16:45.641Z,4.20
2023-02-24T17:19:12.561Z,4.30
2023-02-24T17:21:43.181Z,4.30
2023-02-24T17:24:15.789Z,4.30
2023-02-24T17:26:42.725Z,4.30
2023-02-24T17:29:10.118Z,4.30
2023-02-24T17:31:36.961Z,4.30
2023-02-24T17:34:06.231Z,4.30
2023-02-24T17:36:33.022Z,4.30
2023-02-24T17:38:59.654Z,4.30
2023-02-24T17:41:26.312Z,4.30
2023-02-24T17:43:53.780Z,4.30
2023-02-24T17:46:21.754Z,4.30
2023-02-24T17:48:48.687Z,4.30
2023-02-24T17:51:17.331Z,4.30
2023-02-24T17:53:44.386Z,4.30
2023-02-24T17:56:11.717Z,4.30
2023-02-24T17:58:39.167Z,4.30
2023-02-24T18:01:07.059Z,4.30
2023-02-24T18:03:35.636Z,4.30
2023-02-24T18:06:05.285Z,4.40
2023-02-24T18:08:36.704Z,4.40
2023-02-24T18:11:05.347Z,4.40
2023-02-24T18:13:33.063Z,4.30
2023-02-24T18:15:59.816Z,4.40
2023-02-24T18:18:27.220Z,4.30
2023-02-24T18:20:55.316Z,4.40
2023-02-24T18:23:22.819Z,4.30
2023-02-24T18:25:49.391Z,4.30
2023-02-24T18:28:16.051Z,4.30
2023-02-24T18:30:42.653Z,4.20
2023-02-24T18:33:09.444Z,4.20
2023-02-24T18:35:38.598Z,4.20
2023-02-24T18:38:05.527Z,4.10
2023-02-24T18:40:32.103Z,4.10
2023-02-24T18:42:58.706Z,4.20
2023-02-24T18:45:25.290Z,4.10
2023-02-24T18:47:52.774Z,4.10
2023-02-24T18:50:20.653Z,4.10
2023-02-24T18:52:47.261Z,4.10
2023-02-24T18:55:13.860Z,4.10
2023-02-24T18:57:40.988Z,4.10
2023-02-24T19:00:09.372Z,4.00
2023-02-24T19:02:36.057Z,3.90
2023-02-24T19:05:02.730Z,3.80
2023-02-24T19:07:29.342Z,3.80
2023-02-24T19:09:55.949Z,3.80
2023-02-24T19:12:23.992Z,3.70
2023-02-24T19:14:52.423Z,3.70
2023-02-24T19:17:19.891Z,3.80
2023-02-24T19:19:46.718Z,3.80
2023-02-24T19:22:13.559Z,3.80
2023-02-24T19:24:40.187Z,3.80
2023-02-24T19:27:08.554Z,3.80
2023-02-24T19:29:35.351Z,3.80
2023-02-24T19:32:02.086Z,3.70
2023-02-24T19:34:28.825Z,3.80
2023-02-24T19:36:55.423Z,3.70
2023-02-24T19:39:22.056Z,3.70
2023-02-24T19:41:49.880Z,3.70
2023-02-24T19:44:16.973Z,3.70
2023-02-24T19:46:43.734Z,3.70
2023-02-24T19:49:10.410Z,3.60
2023-02-24T19:51:37.102Z,3.70
2023-02-24T19:54:05.755Z,3.70
2023-02-24T19:56:35.761Z,3.70
2023-02-24T19:59:04.431Z,3.80
2023-02-24T20:01:31.350Z,3.80
2023-02-24T20:04:00.999Z,3.80
2023-02-24T20:06:31.651Z,3.80
2023-02-24T20:08:59.301Z,3.90
2023-02-24T20:11:28.516Z,3.90
2023-02-24T20:13:55.283Z,3.90
2023-02-24T20:16:25.017Z,3.90
2023-02-24T20:18:54.418Z,3.80
2023-02-24T20:21:21.075Z,3.80
2023-02-24T20:23:47.695Z,3.80
2023-02-24T20:26:14.293Z,3.80
2023-02-24T20:28:41.081Z,3.80
2023-02-24T20:31:10.494Z,3.80
2023-02-24T20:33:40.649Z,3.80
2023-02-24T20:36:09.158Z,3.90
2023-02-24T20:38:36.062Z,3.80
2023-02-24T20:41:03.078Z,3.70
2023-02-24T20:43:29.729Z,3.80
2023-02-24T20:45:57.491Z,3.80
2023-02-24T20:48:24.231Z,3.70
2023-02-24T20:50:51.191Z,3.70
2023-02-24T20:53:18.162Z,3.80
2023-02-24T20:55:44.839Z,3.70
2023-02-24T20:58:11.649Z,3.80
2023-02-24T21:00:40.002Z,3.70
2023-02-24T21:03:11.758Z,3.70
2023-02-24T21:05:39.249Z,3.70
2023-02-24T21:08:06.057Z,3.70
2023-02-24T21:10:32.898Z,3.70
2023-02-24T21:12:59.507Z,3.70
2023-02-24T21:15:26.140Z,3.70
2023-02-24T21:17:52.711Z,3.70
2023-02-24T21:20:19.440Z,3.70
2023-02-24T21:22:46.282Z,3.80
2023-02-24T21:25:12.874Z,3.80
2023-02-24T21:27:39.581Z,3.70
2023-02-24T21:30:07.337Z,3.80
2023-02-24T21:32:34.299Z,3.80
2023-02-24T21:35:02.000Z,3.80
2023-02-24T21:37:28.849Z,3.80
2023-02-24T21:39:55.480Z,3.80
2023-02-24T21:42:22.395Z,3.80
2023-02-24T21:44:50.950Z,3.70
2023-02-24T21:47:18.146Z,3.70
2023-02-24T21:49:46.078Z,3.60
2023-02-24T21:52:13.176Z,3.60
2023-02-24T21:54:42.113Z,3.60
2023-02-24T21:57:08.746Z,3.60
2023-02-24T21:59:35.353Z,3.60
2023-02-24T22:02:02.059Z,3.60
2023-02-24T22:04:28.703Z,3.60
2023-02-24T22:06:55.364Z,3.60
2023-02-24T22:09:21.982Z,3.60
2023-02-24T22:11:49.533Z,3.60
2023-02-24T22:14:16.414Z,3.60
2023-02-24T22:16:43.455Z,3.60
2023-02-24T22:19:11.222Z,3.70
2023-02-24T22:21:42.128Z,3.70
2023-02-24T22:24:12.746Z,3.70
2023-02-24T22:26:40.024Z,3.70
2023-02-24T22:29:07.401Z,3.70
2023-02-24T22:31:36.577Z,3.70
2023-02-24T22:34:04.294Z,3.80
2023-02-24T22:36:33.557Z,3.70
2023-02-24T22:39:01.210Z,3.70
2023-02-24T22:41:31.225Z,3.70
2023-02-24T22:43:58.597Z,3.70
2023-02-24T22:46:34.400Z,3.70
2023-02-24T22:49:01.405Z,3.60
2023-02-24T22:51:28.608Z,3.50
2023-02-24T22:53:55.372Z,3.50
2023-02-24T22:56:25.541Z,3.40
2023-02-24T22:58:52.459Z,3.30
2023-02-24T23:01:27.962Z,3.30
2023-02-24T23:03:54.848Z,3.40
2023-02-24T23:06:23.668Z,3.40
2023-02-24T23:08:51.475Z,3.40
2023-02-24T23:11:33.983Z,3.40
2023-02-24T23:14:03.949Z,3.40
2023-02-24T23:16:32.985Z,3.50
2023-02-24T23:19:04.138Z,3.40
2023-02-24T23:21:43.135Z,3.50
2023-02-24T23:24:11.522Z,3.50
2023-02-24T23:26:40.430Z,3.50
2023-02-24T23:29:07.383Z,3.50
2023-02-24T23:31:34.202Z,3.50
2023-02-24T23:34:06.935Z,3.50
2023-02-24T23:36:39.347Z,3.50
2023-02-24T23:39:07.637Z,3.50
2023-02-24T23:41:35.220Z,3.50
2023-02-24T23:44:01.893Z,3.60
2023-02-24T23:46:29.548Z,3.60
2023-02-24T23:48:57.314Z,3.50
2023-02-24T23:51:24.366Z,3.60
2023-02-24T23:53:51.241Z,3.60
2023-02-24T23:56:23.504Z,3.60
2023-02-24T23:58:52.092Z,3.50
